Time;durP1;ratioP1;P1;durP2;ratioP2;P2;SDS_P1;SDS_P2;PMS_P1;PMS_P2;Temp;Humidity;BMP_temperature;BMP_pressure;BME280_temperature;BME280_humidity;BME280_pressure;Samples;Min_cycle;Max_cycle;Signal;HPM_P1;HPM_P2
2022/12/28 00:01:38;;;;;;;251.82;141.63;;;;;;;10.55;77.59;99296.09;4940066;29;20063;-63
2022/12/28 00:04:14;;;;;;;244.68;136.77;;;;;;;10.67;77.35;99300.88;4933362;29;20056;-63
2022/12/28 00:07:03;;;;;;;236.15;138.02;;;;;;;10.57;77.50;99298.56;4932193;29;20162;-62
2022/12/28 00:09:52;;;;;;;227.75;132.48;;;;;;;10.47;77.82;99298.94;4949424;29;20051;-63
2022/12/28 00:12:34;;;;;;;228.82;131.82;;;;;;;10.30;77.30;99303.81;4949686;29;20058;-62
2022/12/28 00:15:23;;;;;;;224.90;132.02;;;;;;;10.34;78.01;99315.78;4939901;29;20066;-62
2022/12/28 00:18:05;;;;;;;222.00;132.48;;;;;;;10.26;77.85;99317.75;4931066;29;20543;-62
2022/12/28 00:21:04;;;;;;;223.43;133.75;;;;;;;10.15;78.01;99316.47;4930725;29;20083;-62
2022/12/28 00:23:54;;;;;;;219.23;130.52;;;;;;;10.37;77.49;99318.09;4949155;29;20050;-62
2022/12/28 00:26:42;;;;;;;232.68;132.95;;;;;;;10.36;77.55;99319.09;4933017;29;20368;-62
2022/12/28 00:29:24;;;;;;;228.77;132.77;;;;;;;10.39;77.59;99304.47;4930180;29;20040;-62
2022/12/28 00:32:13;;;;;;;240.43;140.43;;;;;;;10.49;77.16;99309.47;4933313;29;20053;-62
2022/12/28 00:35:02;;;;;;;238.65;134.85;;;;;;;10.65;75.90;99303.78;4930829;29;20058;-62
2022/12/28 00:37:44;;;;;;;246.70;139.05;;;;;;;10.54;76.57;99309.69;4945304;29;20080;-62
2022/12/28 00:40:39;;;;;;;229.15;134.35;;;;;;;10.53;76.82;99302.69;4928976;29;20059;-62
2022/12/28 00:43:16;;;;;;;240.93;135.75;;;;;;;10.53;75.96;99313.44;4944764;29;20039;-62
2022/12/28 00:46:05;;;;;;;235.95;132.82;;;;;;;10.32;77.14;99303.63;4935174;29;20084;-62
2022/12/28 00:48:47;;;;;;;225.30;131.30;;;;;;;10.32;77.07;99311.66;4948092;28;20071;-63
2022/12/28 00:51:42;;;;;;;238.30;135.63;;;;;;;10.61;75.90;99310.56;4949902;29;20051;-63
2022/12/28 00:54:24;;;;;;;235.55;132.38;;;;;;;10.42;76.24;99314.00;4932629;28;20055;-62
2022/12/28 00:57:14;;;;;;;219.95;131.27;;;;;;;10.48;76.31;99302.44;4913085;29;20059;-62
2022/12/28 00:59:56;;;;;;;224.93;130.95;;;;;;;10.30;76.58;99309.19;4948726;28;20055;-63
2022/12/28 01:02:45;;;;;;;229.27;134.15;;;;;;;10.38;77.14;99313.56;4948773;29;20055;-63
2022/12/28 01:05:27;;;;;;;231.20;132.55;;;;;;;10.56;75.62;99304.97;4931806;29;22730;-62
2022/12/28 01:08:16;;;;;;;229.18;134.07;;;;;;;10.70;74.77;99306.69;4946950;29;20129;-62
2022/12/28 01:11:11;;;;;;;233.75;131.90;;;;;;;10.65;75.38;99303.78;4948056;29;20043;-62
2022/12/28 01:14:03;;;;;;;227.25;130.90;;;;;;;10.32;76.60;99301.75;4931086;29;20089;-63
2022/12/28 01:16:45;;;;;;;237.63;132.38;;;;;;;10.28;75.91;99305.84;4929444;29;20067;-62
2022/12/28 01:19:36;;;;;;;229.38;133.02;;;;;;;10.23;76.64;99316.31;4946821;29;20058;-61
2022/12/28 01:22:18;;;;;;;220.35;129.77;;;;;;;10.37;76.10;99319.94;4948402;29;20054;-62
2022/12/28 01:25:07;;;;;;;226.20;133.13;;;;;;;10.32;76.32;99319.72;4931339;29;20047;-59
2022/12/28 01:27:49;;;;;;;225.50;133.10;;;;;;;10.16;76.74;99321.66;4942583;29;20070;-61
2022/12/28 01:30:38;;;;;;;217.82;130.60;;;;;;;10.11;77.06;99317.91;4912498;29;20067;-62
2022/12/28 01:33:21;;;;;;;224.15;128.57;;;;;;;9.95;77.09;99313.63;4942341;29;20055;-63
2022/12/28 01:36:15;;;;;;;230.52;134.50;;;;;;;9.97;77.63;99325.00;4920775;29;20058;-65
2022/12/28 01:39:00;;;;;;;233.15;136.02;;;;;;;10.19;76.64;99333.84;4921304;29;20102;-64
2022/12/28 01:41:49;;;;;;;234.52;135.63;;;;;;;10.44;75.51;99328.03;4914834;29;20382;-63
2022/12/28 01:44:43;;;;;;;224.18;130.70;;;;;;;9.87;75.88;99328.03;4930709;29;20043;-63
2022/12/28 01:47:34;;;;;;;223.55;128.02;;;;;;;9.88;75.93;99332.38;4936439;29;20056;-64
2022/12/28 01:50:27;;;;;;;219.45;125.60;;;;;;;9.56;77.21;99337.25;4933048;29;20170;-63
2022/12/28 01:53:11;;;;;;;198.90;116.15;;;;;;;10.08;75.29;99351.28;4934208;29;20048;-63
2022/12/28 01:56:07;;;;;;;203.23;117.90;;;;;;;9.85;75.44;99343.47;4931857;29;20059;-63
2022/12/28 01:58:58;;;;;;;194.55;117.85;;;;;;;9.68;75.38;99345.59;4925058;29;20047;-63
2022/12/28 02:01:47;;;;;;;190.00;107.82;;;;;;;9.79;74.90;99352.28;4944765;29;20150;-64
2022/12/28 02:04:29;;;;;;;171.77;104.20;;;;;;;9.97;74.26;99354.50;4928283;29;20051;-64
2022/12/28 02:07:24;;;;;;;175.65;103.00;;;;;;;9.62;73.79;99362.44;4945536;29;20051;-63
2022/12/28 02:10:07;;;;;;;166.52;103.10;;;;;;;9.35;74.59;99361.34;4947077;29;20083;-63
2022/12/28 02:13:16;;;;;;;171.88;102.25;;;;;;;9.05;74.05;99365.97;4915476;29;20155;-62
2022/12/28 02:16:04;;;;;;;214.27;120.00;;;;;;;8.90;75.19;99369.47;4929665;29;20097;-64
2022/12/28 02:18:54;;;;;;;271.58;137.05;;;;;;;8.70;77.03;99369.25;4930019;29;20070;-63
2022/12/28 02:22:00;;;;;;;353.55;167.93;;;;;;;8.36;77.21;99375.94;4928973;29;20050;-64
2022/12/28 02:25:01;;;;;;;386.13;180.13;;;;;;;8.71;76.67;99376.28;4936507;29;20478;-63
2022/12/28 02:28:11;;;;;;;485.15;227.05;;;;;;;9.00;77.32;99369.22;4941438;29;20074;-63
2022/12/28 02:31:12;;;;;;;493.98;235.95;;;;;;;8.93;75.84;99370.97;4929792;29;20538;-64
2022/12/28 02:34:04;;;;;;;483.63;232.55;;;;;;;9.00;76.85;99372.72;4946155;29;20043;-65
2022/12/28 02:37:00;;;;;;;508.13;236.02;;;;;;;8.65;77.40;99371.63;4945852;29;20079;-64
2022/12/28 02:40:08;;;;;;;499.85;232.27;;;;;;;8.79;77.77;99373.47;4912579;29;20048;-63
2022/12/28 02:42:59;;;;;;;508.77;233.75;;;;;;;8.40;79.01;99377.22;4946914;29;20075;-63
2022/12/28 02:52:02;;;;;;;511.45;231.50;;;;;;;8.10;81.48;99399.59;4944130;29;20059;-63
2022/12/28 02:58:48;;;;;;;526.75;238.93;;;;;;;8.59;80.79;99409.84;4946447;29;20059;-63
2022/12/28 03:01:48;;;;;;;527.35;242.43;;;;;;;8.79;79.76;99400.25;4923493;29;20055;-63
2022/12/28 03:04:59;;;;;;;511.58;238.35;;;;;;;8.68;81.50;99408.75;4922789;29;20079;-63
2022/12/28 03:08:21;;;;;;;535.88;245.85;;;;;;;8.73;80.61;99414.38;4935704;29;20450;-64
2022/12/28 03:11:11;;;;;;;504.83;238.65;;;;;;;8.35;82.01;99427.78;4929044;29;20491;-54
2022/12/28 03:14:08;;;;;;;531.45;243.98;;;;;;;8.67;82.56;99435.66;4946238;29;20093;-54
2022/12/28 03:32:34;;;;;;;514.92;241.77;;;;;;;8.33;84.27;99442.31;4925213;29;20062;-55
2022/12/28 03:35:38;;;;;;;517.03;237.10;;;;;;;8.52;84.30;99446.34;4914108;29;20056;-52
2022/12/28 03:38:32;;;;;;;513.28;244.82;;;;;;;8.65;83.60;99457.25;4912458;29;20461;-54
2022/12/28 03:41:40;;;;;;;547.10;266.15;;;;;;;8.63;83.60;99457.44;4927961;29;20122;-54
2022/12/28 03:44:32;;;;;;;561.83;264.35;;;;;;;8.82;82.90;99457.91;4920941;28;20058;-51
2022/12/28 03:47:32;;;;;;;540.78;258.52;;;;;;;8.50;84.96;99467.94;4931066;29;20047;-52
2022/12/28 03:50:10;;;;;;;585.15;285.45;;;;;;;8.51;85.49;99464.25;4938463;29;20047;-57
2022/12/28 03:52:59;;;;;;;605.38;286.17;;;;;;;8.40;85.12;99467.34;4940247;29;20067;-53
2022/12/28 03:55:43;;;;;;;612.60;292.77;;;;;;;8.95;85.21;99468.00;4919603;28;20071;-54
2022/12/28 03:58:32;;;;;;;548.55;259.95;;;;;;;9.01;82.91;99478.78;4920935;29;20071;-55
2022/12/28 04:01:15;;;;;;;545.60;252.53;;;;;;;9.21;82.39;99479.06;4929062;28;20043;-54
2022/12/28 04:04:04;;;;;;;501.00;235.80;;;;;;;8.95;83.03;99492.09;4903656;29;20067;-55
2022/12/28 04:06:46;;;;;;;466.35;218.65;;;;;;;8.50;84.45;99502.72;4932244;29;20559;-54
2022/12/28 04:09:42;;;;;;;464.15;214.80;;;;;;;8.90;84.11;99507.84;4923137;29;20495;-54
2022/12/28 04:12:18;;;;;;;459.40;209.40;;;;;;;8.45;85.19;99512.31;4937112;29;20048;-57
2022/12/28 04:15:27;;;;;;;448.55;205.65;;;;;;;9.52;82.94;99512.81;4940051;29;20039;-55
2022/12/28 04:18:10;;;;;;;458.45;208.93;;;;;;;9.30;81.54;99516.44;4929512;29;20070;-56
2022/12/28 04:21:07;;;;;;;437.13;204.73;;;;;;;9.61;82.02;99516.25;4949667;29;20058;-55
2022/12/28 04:23:44;;;;;;;438.50;199.00;;;;;;;9.55;81.05;99516.97;4948255;28;20491;-55
2022/12/28 04:26:33;;;;;;;428.63;203.68;;;;;;;9.44;82.34;99520.97;4950541;28;20078;-56
2022/12/28 04:29:22;;;;;;;444.65;204.00;;;;;;;9.55;81.53;99533.03;4944348;29;20051;-56
2022/12/28 04:32:17;;;;;;;434.27;200.20;;;;;;;9.10;83.22;99533.06;4916253;29;20790;-56
2022/12/28 04:34:59;;;;;;;436.67;201.40;;;;;;;9.01;83.37;99542.19;4920145;29;20055;-55
2022/12/28 04:37:54;;;;;;;418.88;190.65;;;;;;;9.12;83.62;99544.44;4916474;29;20055;-53
2022/12/28 04:40:43;;;;;;;410.98;183.95;;;;;;;9.37;83.48;99547.66;4921825;29;20086;-54
2022/12/28 04:43:25;;;;;;;432.15;196.90;;;;;;;9.52;83.61;99552.19;4949062;29;20365;-54
2022/12/28 04:46:18;;;;;;;455.67;207.50;;;;;;;9.15;83.36;99557.47;4947741;29;20055;-55
2022/12/28 04:49:00;;;;;;;451.63;200.50;;;;;;;9.20;83.61;99563.06;4930582;29;20044;-55
2022/12/28 04:51:49;;;;;;;452.67;200.10;;;;;;;9.02;85.44;99562.63;4937990;29;20542;-55
2022/12/28 04:54:38;;;;;;;433.88;196.38;;;;;;;9.39;84.11;99563.56;4946151;28;20118;-52
2022/12/28 04:57:27;;;;;;;394.83;184.10;;;;;;;9.81;82.78;99564.69;4945832;28;20058;-52
2022/12/28 05:00:16;;;;;;;393.83;186.25;;;;;;;9.20;84.06;99586.38;4946468;28;20059;-55
2022/12/28 05:03:05;;;;;;;422.75;195.75;;;;;;;9.13;84.27;99586.28;4936568;28;20055;-54
2022/12/28 05:05:48;;;;;;;413.73;197.00;;;;;;;9.54;83.70;99593.84;4938618;28;20043;-53
2022/12/28 05:08:38;;;;;;;408.25;187.95;;;;;;;9.51;83.27;99596.88;4946099;28;20044;-53
2022/12/28 05:11:22;;;;;;;366.45;173.38;;;;;;;9.19;84.35;99595.41;4960567;28;20109;-56
2022/12/28 05:14:11;;;;;;;370.77;167.18;;;;;;;9.58;84.10;99587.09;4957714;28;20071;-53
2022/12/28 05:17:00;;;;;;;395.50;182.15;;;;;;;9.70;83.33;99578.59;4958755;28;20082;-53
2022/12/28 05:19:49;;;;;;;380.67;170.15;;;;;;;10.03;82.54;99572.78;4926535;29;20047;-57
2022/12/28 05:22:31;;;;;;;369.95;171.10;;;;;;;10.49;81.28;99577.81;4926688;29;20491;-55
2022/12/28 05:25:21;;;;;;;351.98;163.27;;;;;;;10.17;81.35;99574.59;4935905;29;20110;-57
2022/12/28 05:28:16;;;;;;;364.75;164.00;;;;;;;9.75;83.47;99584.22;4941448;29;20048;-51
2022/12/28 05:30:52;;;;;;;344.00;158.73;;;;;;;10.23;82.25;99571.16;4938666;29;20051;-56
2022/12/28 05:33:42;;;;;;;355.73;162.07;;;;;;;10.44;81.48;99564.16;4936229;29;20102;-55
2022/12/28 05:36:31;;;;;;;367.73;160.48;;;;;;;10.74;80.71;99557.63;4936455;29;20059;-51
2022/12/28 05:39:20;;;;;;;355.27;163.85;;;;;;;10.37;81.11;99548.84;4937591;29;20062;-53
2022/12/28 05:42:02;;;;;;;352.73;160.68;;;;;;;10.43;81.40;99551.75;4937284;29;20043;-55
2022/12/28 05:44:51;;;;;;;379.25;174.52;;;;;;;10.51;80.70;99539.06;4937541;29;20600;-54
2022/12/28 05:47:33;;;;;;;344.13;169.85;;;;;;;10.31;82.44;99529.97;4937911;28;20535;-57
2022/12/28 05:50:29;;;;;;;353.88;164.23;;;;;;;10.88;79.94;99522.81;4936582;29;20121;-54
2022/12/28 05:53:05;;;;;;;353.13;164.63;;;;;;;11.64;77.50;99519.31;4937721;29;20134;-52
2022/12/28 05:56:05;;;;;;;344.50;168.10;;;;;;;11.54;76.98;99527.72;4921717;28;20051;-57
2022/12/28 05:58:58;;;;;;;343.23;163.75;;;;;;;11.79;76.18;99521.81;4945315;29;20055;-54
2022/12/28 06:01:49;;;;;;;368.25;179.18;;;;;;;11.33;78.20;99525.97;4933966;29;20356;-52
2022/12/28 06:04:31;;;;;;;347.83;167.57;;;;;;;11.52;78.10;99521.72;4944078;29;20051;-54
2022/12/28 06:07:20;;;;;;;324.15;158.32;;;;;;;11.53;78.64;99523.38;4935308;29;20110;-56
2022/12/28 06:10:02;;;;;;;317.77;158.05;;;;;;;12.70;76.18;99511.41;4939720;29;20070;-54
2022/12/28 06:12:51;;;;;;;326.02;162.23;;;;;;;13.43;72.27;99506.94;4936043;29;20133;-51
2022/12/28 06:15:33;;;;;;;346.00;167.35;;;;;;;12.70;73.81;99506.00;4936631;29;20432;-53
2022/12/28 06:18:22;;;;;;;319.15;156.43;;;;;;;13.19;72.05;99503.06;4933668;29;20050;-56
2022/12/28 06:21:14;;;;;;;317.52;156.65;;;;;;;13.85;70.43;99494.72;4921453;29;20046;-56
2022/12/28 06:23:57;;;;;;;322.23;162.82;;;;;;;13.50;70.70;99489.69;4939903;29;20143;-55
2022/12/28 06:26:52;;;;;;;325.40;162.43;;;;;;;13.76;71.34;99481.69;4932974;29;20047;-54
2022/12/28 06:29:27;;;;;;;328.50;168.70;;;;;;;14.02;69.85;99478.81;4937113;29;20055;-52
2022/12/28 06:32:22;;;;;;;350.85;174.10;;;;;;;14.21;69.70;99466.25;4929083;29;20408;-50
2022/12/28 06:34:58;;;;;;;357.08;175.45;;;;;;;14.80;69.64;99471.38;4926693;29;20055;-56
2022/12/28 06:37:53;;;;;;;336.92;178.13;;;;;;;15.01;67.67;99462.84;4904659;29;20126;-58
2022/12/28 06:40:29;;;;;;;350.27;182.15;;;;;;;15.48;65.02;99456.91;4907166;29;20546;-55
2022/12/28 06:43:45;;;;;;;359.10;186.98;;;;;;;15.22;66.15;99452.63;4934730;29;20051;-58
2022/12/28 06:46:23;;;;;;;356.38;186.98;;;;;;;15.80;64.57;99438.59;4939675;29;20371;-57
2022/12/28 06:49:12;;;;;;;358.02;186.50;;;;;;;16.05;64.04;99429.50;4926129;29;20102;-57
2022/12/28 06:51:54;;;;;;;340.15;180.85;;;;;;;15.65;65.56;99424.63;4930725;29;20150;-58
2022/12/28 06:54:49;;;;;;;346.88;182.02;;;;;;;16.11;62.57;99417.72;4940236;29;20047;-54
2022/12/28 06:57:38;;;;;;;346.10;178.73;;;;;;;16.24;63.10;99417.50;4938531;29;20036;-56
2022/12/28 07:00:27;;;;;;;350.08;178.32;;;;;;;15.87;64.04;99414.13;4928878;29;20371;-55
2022/12/28 07:03:09;;;;;;;338.92;175.45;;;;;;;15.93;63.95;99413.19;4943517;29;20062;-56
2022/12/28 07:05:58;;;;;;;347.65;180.77;;;;;;;16.66;61.94;99416.56;4935556;29;20078;-55
2022/12/28 07:08:40;;;;;;;340.83;180.50;;;;;;;16.50;61.80;99417.28;4918081;29;20047;-54
2022/12/28 07:11:29;;;;;;;367.13;191.60;;;;;;;15.84;63.33;99404.59;4932632;29;20487;-55
2022/12/28 07:14:18;;;;;;;375.05;190.85;;;;;;;16.51;62.79;99406.22;4944260;29;20055;-57
2022/12/28 07:17:00;;;;;;;396.27;206.57;;;;;;;16.87;61.94;99401.63;4939447;29;20146;-55
2022/12/28 07:19:50;;;;;;;389.73;208.98;;;;;;;17.19;59.63;99384.91;4919411;29;20071;-55
2022/12/28 07:22:39;;;;;;;404.73;211.32;;;;;;;17.45;59.77;99393.56;4917026;29;20055;-56
2022/12/28 07:25:21;;;;;;;418.13;214.05;;;;;;;17.81;59.27;99371.41;4934722;29;20059;-55
2022/12/28 07:28:10;;;;;;;424.30;222.57;;;;;;;17.57;59.27;99365.28;4929377;29;20052;-55
2022/12/28 07:31:05;;;;;;;416.02;219.68;;;;;;;17.87;57.66;99357.97;4933510;29;20055;-55
2022/12/28 07:33:56;;;;;;;415.27;215.02;;;;;;;18.10;59.39;99352.38;4937473;29;20047;-57
2022/12/28 07:36:38;;;;;;;428.75;221.25;;;;;;;18.04;56.85;99342.50;4923225;29;20048;-57
2022/12/28 07:39:27;;;;;;;416.27;219.65;;;;;;;18.19;57.82;99345.44;4929535;29;20162;-54
2022/12/28 07:42:16;;;;;;;413.88;218.00;;;;;;;18.62;57.25;99342.25;4943617;29;20047;-56
2022/12/28 07:45:09;;;;;;;413.17;223.98;;;;;;;18.56;56.35;99344.06;4927281;29;20090;-54
2022/12/28 07:47:53;;;;;;;439.45;230.40;;;;;;;18.84;54.54;99325.97;4940162;29;20384;-55
2022/12/28 07:50:42;;;;;;;442.33;232.75;;;;;;;19.00;56.09;99332.44;4927428;29;20090;-58
2022/12/28 07:53:24;;;;;;;451.55;242.88;;;;;;;18.97;55.45;99326.41;4933079;29;20043;-55
2022/12/28 07:56:21;;;;;;;458.33;243.60;;;;;;;19.17;55.53;99322.28;4918928;29;20047;-55
2022/12/28 07:59:17;;;;;;;464.52;248.43;;;;;;;19.21;54.91;99325.31;4938013;29;20043;-57
2022/12/28 08:01:53;;;;;;;460.33;247.80;;;;;;;19.30;54.79;99332.75;4924589;29;20052;-57
2022/12/28 08:04:48;;;;;;;480.70;254.47;;;;;;;19.36;55.65;99311.88;4938633;29;20059;-57
2022/12/28 08:07:26;;;;;;;508.50;272.08;;;;;;;19.14;55.57;99317.34;4934259;29;20165;-57
2022/12/28 08:10:15;;;;;;;511.83;275.70;;;;;;;19.36;55.37;99309.16;4939332;28;20058;-54
2022/12/28 08:12:57;;;;;;;459.30;249.35;;;;;;;19.41;53.38;99301.00;4940809;29;20052;-53
2022/12/28 08:16:01;;;;;;;448.20;248.27;;;;;;;19.30;54.38;99299.28;4941258;29;20075;-55
2022/12/28 08:18:39;;;;;;;460.60;252.63;;;;;;;19.41;53.72;99300.19;4939120;29;20051;-55
2022/12/28 08:21:34;;;;;;;441.25;247.77;;;;;;;19.49;55.05;99294.28;4940045;29;20078;-57
2022/12/28 08:24:25;;;;;;;444.63;245.13;;;;;;;19.56;55.77;99297.59;4938886;29;20126;-55
2022/12/28 08:27:07;;;;;;;441.38;238.80;;;;;;;19.15;55.77;99283.63;4942245;29;20051;-56
2022/12/28 08:29:57;;;;;;;449.45;233.57;;;;;;;19.31;55.41;99284.59;4937926;29;20051;-55
2022/12/28 08:32:39;;;;;;;434.88;226.18;;;;;;;19.29;56.07;99271.22;4934067;29;20077;-54
2022/12/28 08:35:28;;;;;;;405.60;222.02;;;;;;;19.29;55.77;99265.78;4940130;29;20051;-55
2022/12/28 08:38:10;;;;;;;392.63;216.75;;;;;;;19.35;55.92;99267.47;4941885;29;20043;-54
2022/12/28 08:41:04;;;;;;;389.73;207.73;;;;;;;19.42;55.67;99272.72;4940749;29;20055;-57
2022/12/28 08:43:47;;;;;;;392.90;213.55;;;;;;;19.34;55.26;99274.00;4922834;29;20051;-53
2022/12/28 08:46:40;;;;;;;380.63;206.52;;;;;;;19.24;55.62;99279.38;4931060;29;20119;-53
2022/12/28 08:49:22;;;;;;;367.73;200.35;;;;;;;19.38;54.79;99271.59;4922757;29;20515;-55
2022/12/28 08:52:11;;;;;;;357.92;194.65;;;;;;;19.58;54.42;99268.22;4939867;29;20051;-52
2022/12/28 08:54:59;;;;;;;367.40;199.05;;;;;;;19.72;52.66;99264.03;4939276;29;20102;-54
2022/12/28 08:57:48;;;;;;;331.73;184.68;;;;;;;19.71;52.61;99259.63;4938091;29;20083;-55
2022/12/28 09:00:30;;;;;;;250.20;141.13;;;;;;;19.63;50.03;99251.94;4936524;29;20047;-56
2022/12/28 09:03:19;;;;;;;254.57;138.82;;;;;;;19.75;49.41;99252.59;4940258;29;20361;-54
2022/12/28 09:06:01;;;;;;;244.80;137.95;;;;;;;19.99;48.82;99257.69;4940757;29;20142;-57
2022/12/28 09:08:52;;;;;;;222.60;125.78;;;;;;;19.95;47.96;99260.09;4938902;29;20340;-53
2022/12/28 09:11:54;;;;;;;201.57;116.10;;;;;;;19.90;46.29;99257.34;4938524;29;20440;-53
2022/12/28 09:14:51;;;;;;;197.68;109.95;;;;;;;19.92;45.93;99248.91;4919388;29;20055;-57
2022/12/28 09:17:33;;;;;;;186.95;104.35;;;;;;;19.93;45.30;99253.28;4945913;29;20061;-57
2022/12/28 09:20:22;;;;;;;187.57;101.10;;;;;;;19.83;44.66;99248.56;4916268;29;20043;-55
2022/12/28 09:23:11;;;;;;;174.68;99.90;;;;;;;19.81;45.02;99239.03;4936097;29;20043;-56
2022/12/28 09:26:05;;;;;;;175.18;100.63;;;;;;;19.87;44.72;99238.81;4938811;29;20051;-55
2022/12/28 09:28:54;;;;;;;184.63;100.78;;;;;;;20.03;45.33;99239.72;4921345;29;20055;-57
2022/12/28 09:31:49;;;;;;;158.43;89.43;;;;;;;19.84;44.60;99235.78;4939599;29;20083;-56
2022/12/28 09:34:25;;;;;;;148.75;84.35;;;;;;;19.94;43.99;99239.38;4936364;29;20091;-56
2022/12/28 09:37:25;;;;;;;141.85;79.00;;;;;;;19.95;43.82;99235.59;4942431;29;20059;-57
2022/12/28 09:40:12;;;;;;;123.28;73.53;;;;;;;20.06;43.00;99230.19;4903417;29;20043;-55
2022/12/28 09:43:08;;;;;;;112.70;66.35;;;;;;;20.05;42.23;99221.19;4932195;29;20130;-55
2022/12/28 09:45:46;;;;;;;123.30;68.22;;;;;;;19.92;42.16;99218.94;4939204;29;20060;-56
2022/12/28 09:48:43;;;;;;;126.65;67.88;;;;;;;19.87;42.12;99210.72;4935581;29;20440;-54
2022/12/28 09:51:24;;;;;;;115.28;65.90;;;;;;;19.98;42.19;99217.06;4936011;29;20470;-59
2022/12/28 09:54:19;;;;;;;130.52;67.18;;;;;;;20.09;41.72;99219.59;4937346;29;20073;-55
2022/12/28 09:57:14;;;;;;;127.22;71.47;;;;;;;20.07;41.91;99220.94;4909012;29;20062;-55
2022/12/28 10:00:03;;;;;;;129.57;71.85;;;;;;;20.02;42.19;99205.38;4919119;29;20143;-57
2022/12/28 10:03:01;;;;;;;100.40;57.45;;;;;;;19.73;39.67;99203.00;4919388;29;20060;-54
2022/12/28 10:05:50;;;;;;;108.82;57.80;;;;;;;20.01;40.32;99208.38;4917940;29;20143;-54
2022/12/28 10:08:48;;;;;;;101.50;53.08;;;;;;;19.89;40.63;99200.38;4916783;29;20055;-53
2022/12/28 10:11:47;;;;;;;101.47;53.60;;;;;;;20.00;40.40;99202.09;4917054;29;20052;-55
2022/12/28 10:14:33;;;;;;;101.50;53.88;;;;;;;19.98;40.54;99211.63;4905735;29;20479;-55
2022/12/28 10:17:26;;;;;;;89.60;53.10;;;;;;;20.01;40.47;99209.19;4914926;29;20040;-56
2022/12/28 10:20:16;;;;;;;99.15;54.17;;;;;;;20.06;40.14;99206.50;4917396;29;20377;-58
2022/12/28 10:23:05;;;;;;;100.38;54.42;;;;;;;20.04;39.83;99213.28;4902423;29;20392;-56
2022/12/28 10:25:49;;;;;;;104.28;55.70;;;;;;;19.99;41.29;99208.63;4916747;29;20067;-56
2022/12/28 10:28:55;;;;;;;95.90;52.45;;;;;;;20.09;40.68;99203.25;4916868;29;20051;-57
2022/12/28 10:32:03;;;;;;;106.47;53.13;;;;;;;20.11;41.81;99203.78;4918123;29;20060;-56
2022/12/28 10:34:57;;;;;;;98.85;53.13;;;;;;;19.96;40.54;99209.16;4918433;29;20126;-55
2022/12/28 10:37:49;;;;;;;100.60;51.63;;;;;;;19.90;42.11;99199.31;4917199;29;20048;-59
2022/12/28 10:40:38;;;;;;;94.70;51.42;;;;;;;19.93;41.90;99210.50;4916222;29;20107;-56
2022/12/28 10:43:27;;;;;;;82.68;44.03;;;;;;;19.91;38.50;99198.22;4918315;29;20831;-53
2022/12/28 10:46:21;;;;;;;75.30;42.40;;;;;;;19.98;38.99;99207.00;4918338;29;20050;-53
2022/12/28 10:49:10;;;;;;;79.32;40.00;;;;;;;19.93;39.63;99209.69;4917798;29;20092;-54
2022/12/28 10:52:17;;;;;;;76.78;38.85;;;;;;;20.00;39.31;99193.91;4916544;29;20062;-54
2022/12/28 10:55:35;;;;;;;88.35;40.58;;;;;;;19.80;40.30;99202.00;4923108;29;20434;-54
2022/12/28 10:58:21;;;;;;;77.38;39.42;;;;;;;19.72;40.78;99198.66;4934959;29;20043;-53
2022/12/28 11:01:13;;;;;;;79.75;42.72;;;;;;;19.70;41.12;99200.81;4938090;29;20118;-56
2022/12/28 11:04:02;;;;;;;78.82;41.63;;;;;;;19.63;41.92;99193.94;4938775;29;20434;-55
2022/12/28 11:07:02;;;;;;;85.03;44.35;;;;;;;19.59;42.39;99203.72;4939910;29;20119;-54
2022/12/28 11:09:51;;;;;;;92.13;46.45;;;;;;;19.53;42.70;99205.59;4938149;29;20155;-54
2022/12/28 11:12:50;;;;;;;83.00;44.08;;;;;;;19.53;44.47;99202.88;4940050;29;20059;-57
2022/12/28 11:15:31;;;;;;;82.22;43.47;;;;;;;19.32;46.16;99199.97;4936813;29;20052;-57
2022/12/28 11:18:21;;;;;;;87.65;46.67;;;;;;;19.35;46.23;99199.44;4922940;29;20082;-56
2022/12/28 11:21:03;;;;;;;91.82;48.63;;;;;;;19.32;47.75;99201.88;4937137;29;20547;-56
2022/12/28 11:23:52;;;;;;;84.57;46.97;;;;;;;19.30;47.14;99202.13;4935394;29;20530;-60
2022/12/28 11:26:35;;;;;;;103.25;49.85;;;;;;;19.06;51.02;99207.06;4937609;29;20059;-57
2022/12/28 11:29:24;;;;;;;98.60;50.63;;;;;;;18.93;50.55;99207.50;4938221;29;20055;-56
2022/12/28 11:32:12;;;;;;;93.85;45.72;;;;;;;18.85;49.92;99211.50;4941886;29;20059;-55
2022/12/28 11:35:02;;;;;;;89.90;47.33;;;;;;;18.70;51.84;99206.69;4927363;29;20052;-53
2022/12/28 11:37:55;;;;;;;86.13;47.28;;;;;;;18.65;54.25;99200.34;4931167;29;20051;-55
2022/12/28 11:40:46;;;;;;;103.40;47.50;;;;;;;18.50;53.39;99193.69;4944118;29;20047;-58
2022/12/28 11:43:40;;;;;;;98.80;48.35;;;;;;;18.40;52.46;99199.00;4939540;29;20651;-55
2022/12/28 11:46:35;;;;;;;97.38;49.47;;;;;;;18.28;54.87;99206.44;4935475;29;20131;-58
2022/12/28 11:49:30;;;;;;;98.32;48.67;;;;;;;18.02;56.82;99217.00;4939637;29;20047;-57
2022/12/28 11:52:32;;;;;;;90.32;48.17;;;;;;;17.87;56.31;99208.63;4944199;29;20074;-52
2022/12/28 11:55:22;;;;;;;98.80;48.83;;;;;;;17.76;57.64;99205.72;4935496;29;20087;-54
2022/12/28 11:58:34;;;;;;;97.45;51.97;;;;;;;17.57;58.18;99204.34;4939569;29;20122;-56
2022/12/28 12:01:28;;;;;;;103.22;50.35;;;;;;;17.48;57.00;99203.13;4923517;29;20075;-55
2022/12/28 12:04:34;;;;;;;92.45;51.20;;;;;;;17.53;57.29;99192.34;4949777;29;20442;-54
2022/12/28 12:07:45;;;;;;;90.80;51.47;;;;;;;17.54;56.92;99191.25;4937326;29;20054;-55
2022/12/28 12:10:37;;;;;;;112.97;52.92;;;;;;;17.43;57.23;99201.16;4933342;29;20473;-57
2022/12/28 12:13:32;;;;;;;95.05;52.67;;;;;;;17.34;57.46;99198.00;4934822;29;20114;-54
2022/12/28 12:16:19;;;;;;;104.75;54.08;;;;;;;17.18;58.62;99204.28;4933516;29;20117;-55
2022/12/28 12:19:27;;;;;;;106.93;52.45;;;;;;;17.00;59.20;99208.81;4946096;29;20139;-54
2022/12/28 12:22:20;;;;;;;112.78;57.30;;;;;;;16.98;58.78;99210.97;4948477;29;20150;-55
2022/12/28 12:25:17;;;;;;;113.60;59.28;;;;;;;16.89;59.38;99211.59;4934377;29;20948;-55
2022/12/28 12:28:12;;;;;;;112.82;57.33;;;;;;;16.82;59.70;99212.56;4937108;29;20067;-55
2022/12/28 12:31:12;;;;;;;117.90;58.55;;;;;;;16.66;60.43;99226.03;4936767;29;20055;-54
2022/12/28 12:33:49;;;;;;;113.80;60.40;;;;;;;16.52;60.68;99223.59;4928817;29;20054;-56
2022/12/28 12:37:04;;;;;;;124.05;58.08;;;;;;;16.56;60.53;99215.81;4936753;29;20479;-55
2022/12/28 12:40:24;;;;;;;143.85;59.75;;;;;;;16.62;61.14;99220.28;4945138;29;20075;-56
2022/12/28 12:43:38;;;;;;;128.25;61.90;;;;;;;16.47;61.29;99226.25;4932654;29;20051;-54
2022/12/28 12:46:29;;;;;;;117.47;61.67;;;;;;;16.39;62.05;99218.47;4930167;29;20055;-56
2022/12/28 12:49:35;;;;;;;137.68;63.47;;;;;;;16.53;60.96;99227.16;4929127;29;20160;-56
2022/12/28 12:52:32;;;;;;;132.63;66.32;;;;;;;16.40;61.40;99225.53;4946945;29;20066;-51
2022/12/28 12:55:31;;;;;;;124.32;68.97;;;;;;;16.39;62.01;99235.56;4946369;29;20047;-54
2022/12/28 12:58:27;;;;;;;127.82;69.68;;;;;;;16.43;62.25;99242.13;4946117;29;20054;-53
2022/12/28 13:01:42;;;;;;;132.77;70.32;;;;;;;16.29;62.89;99245.34;4935532;29;20051;-56
2022/12/28 13:04:27;;;;;;;143.23;70.03;;;;;;;16.19;63.30;99246.78;4940295;29;20056;-55
2022/12/28 13:07:27;;;;;;;132.82;74.40;;;;;;;16.23;63.20;99252.53;4936855;29;20055;-54
2022/12/28 13:10:04;;;;;;;138.38;74.30;;;;;;;16.31;63.17;99248.63;4939313;29;20056;-55
2022/12/28 13:13:05;;;;;;;151.45;76.30;;;;;;;16.35;62.37;99245.19;4944317;29;20214;-55
2022/12/28 13:15:43;;;;;;;142.38;73.30;;;;;;;16.33;62.66;99236.50;4946446;29;20121;-58
2022/12/28 13:18:39;;;;;;;152.48;76.43;;;;;;;16.36;62.13;99241.44;4943516;29;20051;-56